Time;durP1;ratioP1;P1;durP2;ratioP2;P2;SDS_P1;SDS_P2;PMS_P1;PMS_P2;Temp;Humidity;BMP_temperature;BMP_pressure;BME280_temperature;BME280_humidity;BME280_pressure;Samples;Min_cycle;Max_cycle;Signal;HPM_P1;HPM_P2
2021/07/07 00:01:34;;;;;;;36.50;34.50;;;17.50;99.90;;;;;;5090472;28;20439;-74
2021/07/07 00:04:01;;;;;;;35.93;34.10;;;17.50;99.90;;;;;;5090783;28;20445;-74
2021/07/07 00:06:29;;;;;;;36.10;34.20;;;17.40;99.90;;;;;;5089914;28;20447;-74
2021/07/07 00:08:56;;;;;;;35.07;33.27;;;17.40;99.90;;;;;;5090265;28;20485;-74
2021/07/07 00:11:23;;;;;;;36.70;34.43;;;17.40;99.90;;;;;;5090587;28;20446;-73
2021/07/07 00:13:49;;;;;;;35.13;33.23;;;17.30;99.90;;;;;;5090583;28;20545;-73
2021/07/07 00:16:16;;;;;;;35.90;33.90;;;17.30;99.90;;;;;;5090670;28;20456;-74
2021/07/07 00:18:43;;;;;;;35.77;33.87;;;17.40;99.90;;;;;;5090761;28;20445;-74
2021/07/07 00:21:11;;;;;;;35.80;33.93;;;17.20;99.90;;;;;;5090391;28;20446;-74
2021/07/07 00:23:39;;;;;;;34.30;32.60;;;17.30;99.90;;;;;;5090518;28;20492;-75
2021/07/07 00:26:05;;;;;;;35.80;33.83;;;17.40;99.90;;;;;;5090615;28;20446;-74
2021/07/07 00:28:32;;;;;;;34.73;32.93;;;17.40;99.90;;;;;;5090581;28;20446;-75
2021/07/07 00:30:59;;;;;;;35.53;33.73;;;17.40;99.90;;;;;;5090627;28;20450;-74
2021/07/07 00:33:25;;;;;;;35.80;34.00;;;17.30;99.90;;;;;;5090441;28;20453;-74
2021/07/07 00:35:52;;;;;;;36.20;34.20;;;17.20;99.90;;;;;;5090427;28;20528;-74
2021/07/07 00:38:19;;;;;;;34.27;32.57;;;17.30;99.90;;;;;;5090584;28;20466;-75
2021/07/07 00:40:47;;;;;;;34.63;32.87;;;17.40;99.90;;;;;;5090396;28;20438;-74
2021/07/07 00:43:15;;;;;;;34.80;33.00;;;17.40;99.90;;;;;;5090563;28;20473;-74
2021/07/07 00:45:42;;;;;;;35.23;33.40;;;17.50;99.90;;;;;;5090237;28;20485;-74
2021/07/07 00:48:09;;;;;;;34.60;32.80;;;17.40;99.90;;;;;;5090360;28;20461;-74
2021/07/07 00:50:36;;;;;;;34.43;32.73;;;17.40;99.90;;;;;;5090248;28;20481;-74
2021/07/07 00:53:02;;;;;;;33.93;32.07;;;17.50;99.90;;;;;;5090342;28;20443;-74
2021/07/07 00:55:29;;;;;;;34.67;32.90;;;17.60;99.90;;;;;;5090498;28;20458;-74
2021/07/07 00:58:00;;;;;;;33.67;31.90;;;17.60;99.90;;;;;;5090180;28;20507;-74
2021/07/07 01:00:27;;;;;;;34.37;32.47;;;17.60;99.90;;;;;;5090374;28;20465;-73
2021/07/07 01:02:58;;;;;;;34.50;32.63;;;17.50;99.90;;;;;;5090003;28;20446;-73
2021/07/07 01:05:25;;;;;;;34.47;32.50;;;17.50;99.90;;;;;;5090114;28;20438;-73
2021/07/07 01:07:51;;;;;;;35.47;33.40;;;17.60;99.90;;;;;;5090086;28;20439;-73
2021/07/07 01:10:18;;;;;;;35.40;33.30;;;17.60;99.90;;;;;;5090035;28;20485;-73
2021/07/07 01:12:45;;;;;;;34.20;32.40;;;17.50;99.90;;;;;;5090045;28;20506;-74
2021/07/07 01:15:16;;;;;;;34.30;32.50;;;17.40;99.90;;;;;;5090078;28;20450;-73
2021/07/07 01:17:44;;;;;;;35.70;33.70;;;17.50;99.90;;;;;;5091231;28;20447;-74
2021/07/07 01:20:13;;;;;;;36.13;34.17;;;17.40;99.90;;;;;;5093857;28;20457;-74
2021/07/07 01:22:42;;;;;;;35.67;33.70;;;17.40;99.90;;;;;;5093702;28;20813;-74
2021/07/07 01:25:12;;;;;;;35.37;33.47;;;17.20;99.90;;;;;;5093592;28;20450;-74
2021/07/07 01:27:41;;;;;;;34.87;33.07;;;17.10;99.90;;;;;;5093384;28;20850;-75
2021/07/07 01:30:12;;;;;;;34.57;32.67;;;17.10;99.90;;;;;;5093401;28;21192;-73
2021/07/07 01:32:38;;;;;;;35.50;33.60;;;17.10;99.90;;;;;;5093449;28;20817;-74
2021/07/07 01:35:06;;;;;;;36.77;34.47;;;17.30;99.90;;;;;;5093501;28;20450;-74
2021/07/07 01:37:33;;;;;;;34.97;33.07;;;17.30;99.90;;;;;;5093433;28;20442;-74
2021/07/07 01:40:01;;;;;;;35.97;33.97;;;17.30;99.90;;;;;;5093786;28;20850;-74
2021/07/07 01:42:27;;;;;;;36.10;34.20;;;17.50;99.90;;;;;;5093281;28;20477;-74
2021/07/07 01:44:54;;;;;;;35.90;33.90;;;17.60;99.90;;;;;;5093107;28;20486;-74
2021/07/07 01:47:21;;;;;;;37.53;35.40;;;17.60;99.90;;;;;;5093102;28;20936;-75
2021/07/07 01:49:47;;;;;;;37.10;34.87;;;17.40;99.90;;;;;;5093237;28;20819;-75
2021/07/07 01:52:14;;;;;;;36.80;34.83;;;17.30;99.90;;;;;;5093423;28;20446;-74
2021/07/07 01:54:41;;;;;;;37.20;35.20;;;17.30;99.90;;;;;;5092911;28;20461;-74
2021/07/07 01:57:09;;;;;;;36.93;34.73;;;17.20;99.90;;;;;;5093118;28;20544;-74
2021/07/07 01:59:36;;;;;;;36.43;34.37;;;17.20;99.90;;;;;;5092831;28;20453;-75
2021/07/07 02:02:03;;;;;;;38.87;36.67;;;17.20;99.90;;;;;;5093207;28;20872;-74
2021/07/07 02:04:29;;;;;;;37.93;35.73;;;17.30;99.90;;;;;;5093041;28;20454;-74
2021/07/07 02:06:56;;;;;;;39.00;36.60;;;17.30;99.90;;;;;;5092883;28;20446;-74
2021/07/07 02:09:23;;;;;;;40.60;38.00;;;17.50;99.90;;;;;;5092458;28;20486;-73
2021/07/07 02:11:49;;;;;;;42.87;39.87;;;17.70;99.90;;;;;;5092625;28;20451;-72
2021/07/07 02:14:18;;;;;;;44.90;41.90;;;17.80;99.90;;;;;;5092537;28;20446;-72
2021/07/07 02:16:46;;;;;;;45.30;42.40;;;17.80;99.90;;;;;;5092772;28;20458;-72
2021/07/07 02:19:13;;;;;;;45.67;42.70;;;17.80;99.90;;;;;;5091380;28;20438;-73
2021/07/07 02:21:40;;;;;;;46.13;43.03;;;17.80;99.90;;;;;;5088293;28;20450;-73
2021/07/07 02:24:07;;;;;;;45.53;42.83;;;17.90;99.90;;;;;;5090782;28;20955;-74
2021/07/07 02:26:33;;;;;;;42.80;40.30;;;17.80;99.90;;;;;;5090759;28;20450;-73
2021/07/07 02:29:00;;;;;;;42.73;40.27;;;17.80;99.90;;;;;;5090761;28;20446;-74
2021/07/07 02:31:28;;;;;;;41.30;38.90;;;17.80;99.90;;;;;;5090393;28;20482;-74
2021/07/07 02:33:55;;;;;;;41.90;39.63;;;17.70;99.90;;;;;;5090735;28;20797;-74
2021/07/07 02:36:22;;;;;;;42.40;39.90;;;17.70;99.90;;;;;;5090507;28;20499;-74
2021/07/07 02:38:49;;;;;;;42.07;39.73;;;17.90;99.90;;;;;;5090777;28;20924;-74
2021/07/07 02:41:15;;;;;;;43.83;41.10;;;17.90;99.90;;;;;;5090781;28;20479;-73
2021/07/07 02:43:42;;;;;;;42.90;40.40;;;17.90;99.90;;;;;;5090438;28;20930;-74
2021/07/07 02:46:09;;;;;;;41.00;38.60;;;17.90;99.90;;;;;;5090404;28;21105;-74
2021/07/07 02:48:37;;;;;;;41.00;38.70;;;17.90;99.90;;;;;;5090406;28;21179;-74
2021/07/07 02:51:03;;;;;;;39.53;37.13;;;17.80;99.90;;;;;;5090048;28;20475;-74
2021/07/07 02:53:30;;;;;;;39.70;37.10;;;17.70;99.90;;;;;;5090558;28;20508;-72
2021/07/07 02:55:57;;;;;;;39.83;37.73;;;17.60;99.90;;;;;;5090729;28;20468;-72
2021/07/07 02:58:24;;;;;;;36.40;34.50;;;17.60;99.90;;;;;;5090151;28;20845;-73
2021/07/07 03:00:51;;;;;;;37.53;35.57;;;17.60;99.90;;;;;;5090077;28;20434;-72
2021/07/07 03:03:20;;;;;;;37.63;35.63;;;17.60;99.90;;;;;;5089916;28;20439;-72
2021/07/07 03:05:50;;;;;;;38.73;36.73;;;17.60;99.90;;;;;;5090292;28;20449;-72
2021/07/07 03:08:18;;;;;;;36.90;35.00;;;17.50;99.90;;;;;;5089931;28;20729;-72
2021/07/07 03:10:46;;;;;;;37.27;35.27;;;17.50;99.90;;;;;;5089970;28;20486;-72
2021/07/07 03:13:14;;;;;;;38.07;35.97;;;17.40;99.90;;;;;;5090000;28;20445;-72
2021/07/07 03:15:41;;;;;;;38.27;36.07;;;17.40;99.90;;;;;;5087555;28;20454;-72
2021/07/07 03:18:09;;;;;;;40.10;37.80;;;17.40;99.90;;;;;;5089938;28;21176;-72
2021/07/07 03:20:37;;;;;;;40.40;38.20;;;17.40;99.90;;;;;;5090040;28;20450;-73
2021/07/07 03:23:06;;;;;;;41.10;38.87;;;17.40;99.90;;;;;;5090735;28;20443;-73
2021/07/07 03:25:33;;;;;;;39.20;37.10;;;17.40;99.90;;;;;;5091070;28;20442;-72
2021/07/07 03:28:01;;;;;;;40.90;38.60;;;17.30;99.90;;;;;;5091103;28;20450;-73
2021/07/07 03:30:28;;;;;;;38.60;36.27;;;17.20;99.90;;;;;;5091127;28;20474;-73
2021/07/07 03:32:55;;;;;;;39.70;37.60;;;17.10;99.90;;;;;;5090788;28;21001;-73
2021/07/07 03:35:22;;;;;;;38.47;36.33;;;17.10;99.90;;;;;;5090785;28;20446;-73
2021/07/07 03:37:49;;;;;;;39.13;36.63;;;17.00;99.90;;;;;;5090675;28;20507;-72
2021/07/07 03:40:18;;;;;;;38.10;35.97;;;17.00;99.90;;;;;;5091000;28;20943;-72
2021/07/07 03:42:45;;;;;;;38.20;36.20;;;17.10;99.90;;;;;;5090105;28;20461;-73
2021/07/07 03:45:14;;;;;;;38.73;36.60;;;17.20;99.90;;;;;;5090685;28;20493;-74
2021/07/07 03:47:41;;;;;;;42.13;39.63;;;17.30;99.90;;;;;;5090599;28;20447;-73
2021/07/07 03:50:10;;;;;;;41.57;39.17;;;17.30;99.90;;;;;;5090684;28;20493;-73
2021/07/07 03:52:38;;;;;;;41.47;38.97;;;17.40;99.90;;;;;;5090699;28;20450;-72
2021/07/07 03:55:06;;;;;;;41.43;39.07;;;17.50;99.90;;;;;;5090876;28;20453;-72
2021/07/07 03:57:34;;;;;;;41.73;39.13;;;17.50;99.90;;;;;;5090339;28;20446;-71
2021/07/07 04:00:01;;;;;;;40.57;38.20;;;17.50;99.90;;;;;;5090826;28;20959;-71
2021/07/07 04:02:28;;;;;;;41.70;39.30;;;17.60;99.90;;;;;;5090750;28;20785;-72
2021/07/07 04:04:54;;;;;;;41.13;38.63;;;17.40;99.90;;;;;;5090399;28;20945;-73
2021/07/07 04:07:21;;;;;;;41.17;38.87;;;17.30;99.90;;;;;;5090164;28;20982;-73
2021/07/07 04:09:47;;;;;;;43.10;40.50;;;17.30;99.90;;;;;;5089947;28;20447;-72
2021/07/07 04:12:14;;;;;;;40.70;38.40;;;17.20;99.90;;;;;;5090394;28;20457;-72
2021/07/07 04:14:42;;;;;;;42.13;39.83;;;17.30;99.90;;;;;;5090172;28;20447;-72
2021/07/07 04:17:09;;;;;;;39.53;37.30;;;17.20;99.90;;;;;;5090280;28;20450;-72
2021/07/07 04:19:35;;;;;;;39.57;37.30;;;17.20;99.90;;;;;;5090020;28;20701;-72
2021/07/07 04:22:02;;;;;;;40.47;37.80;;;17.10;99.90;;;;;;5089945;28;20496;-72
2021/07/07 04:24:29;;;;;;;39.93;37.73;;;17.10;99.90;;;;;;5090081;28;20447;-71
2021/07/07 04:26:56;;;;;;;36.70;34.60;;;17.20;99.90;;;;;;5090063;28;20447;-71
2021/07/07 04:29:22;;;;;;;39.70;37.40;;;17.10;99.90;;;;;;5089797;28;20453;-72
2021/07/07 04:31:53;;;;;;;39.03;36.73;;;17.20;99.90;;;;;;5089836;28;20485;-72
2021/07/07 04:34:20;;;;;;;38.43;36.27;;;17.10;99.90;;;;;;5089835;28;20472;-72
2021/07/07 04:36:47;;;;;;;37.90;35.70;;;17.10;99.90;;;;;;5089903;28;20951;-72
2021/07/07 04:39:13;;;;;;;38.03;35.43;;;17.10;99.90;;;;;;5089945;28;20885;-73
2021/07/07 04:41:41;;;;;;;36.17;34.37;;;17.00;99.90;;;;;;5089824;28;20815;-74
2021/07/07 04:44:08;;;;;;;35.33;33.40;;;17.10;99.90;;;;;;5089810;28;20716;-73
2021/07/07 04:46:35;;;;;;;34.80;33.00;;;17.20;99.90;;;;;;5089532;28;20853;-74
2021/07/07 04:49:03;;;;;;;36.50;34.60;;;17.30;99.90;;;;;;5089941;28;20453;-74
2021/07/07 04:51:30;;;;;;;34.70;33.00;;;17.40;99.90;;;;;;5089832;28;20492;-72
2021/07/07 04:53:57;;;;;;;36.27;34.27;;;17.30;99.90;;;;;;5092782;28;20941;-73
2021/07/07 04:56:24;;;;;;;34.97;33.00;;;17.30;99.90;;;;;;5093649;28;21019;-71
2021/07/07 04:58:51;;;;;;;38.37;36.17;;;17.50;99.90;;;;;;5093685;28;21130;-73
2021/07/07 05:01:18;;;;;;;39.50;37.37;;;17.50;99.90;;;;;;5093606;28;20441;-74
2021/07/07 05:03:44;;;;;;;38.80;36.63;;;17.60;99.90;;;;;;5093875;28;20491;-74
2021/07/07 05:06:12;;;;;;;40.23;38.13;;;17.50;99.90;;;;;;5093645;28;20453;-73
2021/07/07 05:08:39;;;;;;;39.10;36.90;;;17.50;99.90;;;;;;5093574;28;20454;-73
2021/07/07 05:11:06;;;;;;;38.33;36.27;;;17.60;99.90;;;;;;5093363;28;20485;-73
2021/07/07 05:13:32;;;;;;;39.60;37.50;;;17.60;99.90;;;;;;5093272;28;20502;-73
2021/07/07 05:16:00;;;;;;;39.90;37.50;;;17.70;99.90;;;;;;5093583;28;20536;-74
2021/07/07 05:18:26;;;;;;;37.50;35.50;;;17.70;99.90;;;;;;5097767;28;20470;-74
2021/07/07 05:20:53;;;;;;;37.53;35.30;;;17.70;99.90;;;;;;5113844;28;20958;-75
2021/07/07 05:23:21;;;;;;;36.67;34.10;;;17.60;99.90;;;;;;5113661;28;21056;-74
2021/07/07 05:25:48;;;;;;;39.57;37.00;;;17.50;99.90;;;;;;5113440;28;20837;-74
2021/07/07 05:28:15;;;;;;;38.40;36.17;;;17.50;99.90;;;;;;5113903;28;21005;-73
2021/07/07 05:30:42;;;;;;;38.20;35.90;;;17.40;99.90;;;;;;5113824;28;20496;-75
2021/07/07 05:33:09;;;;;;;35.93;34.03;;;17.40;99.90;;;;;;5113776;28;20453;-76
2021/07/07 05:35:36;;;;;;;36.03;34.03;;;17.30;99.90;;;;;;5113712;28;20449;-76
2021/07/07 05:38:04;;;;;;;35.60;33.63;;;17.40;99.90;;;;;;5113743;28;20805;-74
2021/07/07 05:40:33;;;;;;;37.40;35.40;;;17.40;99.90;;;;;;5113598;28;20460;-74
2021/07/07 05:42:59;;;;;;;36.13;34.27;;;17.50;99.90;;;;;;5113720;28;20457;-74
2021/07/07 05:45:28;;;;;;;35.07;33.37;;;17.50;99.90;;;;;;5113228;28;20530;-74
2021/07/07 05:47:55;;;;;;;33.40;31.80;;;17.60;99.90;;;;;;5113698;28;20457;-74
2021/07/07 05:50:24;;;;;;;34.33;32.70;;;17.50;99.90;;;;;;5113245;28;21196;-73
2021/07/07 05:53:36;;;;;;;32.30;30.80;;;17.50;99.90;;;;;;5113535;28;21189;-72
2021/07/07 05:56:04;;;;;;;32.37;30.97;;;17.40;99.90;;;;;;5045700;28;20826;-72
2021/07/07 05:58:31;;;;;;;32.40;30.70;;;17.50;99.90;;;;;;5050680;28;20594;-72
2021/07/07 06:00:58;;;;;;;31.93;30.53;;;17.50;99.90;;;;;;5083563;28;20441;-72
2021/07/07 06:03:24;;;;;;;31.00;29.67;;;17.50;99.90;;;;;;5113387;28;20811;-71
2021/07/07 06:05:51;;;;;;;30.43;29.03;;;17.50;99.90;;;;;;5111959;28;20954;-72
2021/07/07 06:08:18;;;;;;;28.60;27.20;;;17.70;99.90;;;;;;5112997;28;20939;-72
2021/07/07 06:10:46;;;;;;;30.90;29.60;;;17.80;99.90;;;;;;5113208;28;20994;-71
2021/07/07 06:13:14;;;;;;;30.80;29.30;;;17.90;99.90;;;;;;5113109;28;20485;-77
2021/07/07 06:15:41;;;;;;;31.43;30.03;;;18.20;99.90;;;;;;5112896;28;20523;-73
2021/07/07 06:18:08;;;;;;;30.80;29.40;;;18.30;99.90;;;;;;5113151;28;20445;-73
2021/07/07 06:20:36;;;;;;;30.47;28.90;;;18.30;99.90;;;;;;5113234;28;20453;-74
2021/07/07 06:23:03;;;;;;;29.93;28.70;;;18.30;99.90;;;;;;5113089;28;20785;-74
2021/07/07 06:25:30;;;;;;;31.40;29.90;;;18.30;99.90;;;;;;5113095;28;20449;-74
2021/07/07 06:27:56;;;;;;;31.00;29.60;;;18.40;99.90;;;;;;5112797;28;20453;-72
2021/07/07 06:30:26;;;;;;;30.50;29.20;;;18.50;99.90;;;;;;5112689;28;20441;-72
2021/07/07 06:32:54;;;;;;;31.13;29.70;;;18.50;99.90;;;;;;5112811;28;20441;-72
2021/07/07 06:35:22;;;;;;;30.23;28.83;;;18.40;99.90;;;;;;5108140;28;21316;-72
2021/07/07 06:37:50;;;;;;;27.73;26.63;;;18.40;99.90;;;;;;5100999;28;20860;-72
2021/07/07 06:40:19;;;;;;;28.57;27.27;;;18.20;99.90;;;;;;5093816;28;20437;-72
2021/07/07 06:42:47;;;;;;;24.80;23.80;;;18.30;99.90;;;;;;5094660;28;20508;-72
2021/07/07 06:45:14;;;;;;;20.43;19.63;;;18.40;99.90;;;;;;5100558;28;20481;-72
2021/07/07 06:47:42;;;;;;;19.27;18.57;;;18.30;99.90;;;;;;5112646;28;20449;-71
2021/07/07 06:50:12;;;;;;;18.20;17.50;;;18.40;99.90;;;;;;5112489;28;20789;-71
2021/07/07 06:52:39;;;;;;;18.37;17.57;;;18.60;99.90;;;;;;5112384;28;21071;-71
2021/07/07 06:55:08;;;;;;;18.60;17.90;;;18.60;99.90;;;;;;5092445;28;20438;-70
2021/07/07 06:57:35;;;;;;;16.80;16.20;;;18.80;99.90;;;;;;5091793;28;20459;-71
2021/07/07 07:00:03;;;;;;;17.67;16.83;;;18.60;99.90;;;;;;5092015;28;20438;-71
2021/07/07 07:02:31;;;;;;;17.23;16.27;;;18.60;99.90;;;;;;5092037;28;20470;-71
2021/07/07 07:04:59;;;;;;;17.10;16.20;;;18.50;99.90;;;;;;5091712;28;20817;-71
2021/07/07 07:07:26;;;;;;;16.57;15.93;;;18.40;99.90;;;;;;5091896;28;20556;-72
2021/07/07 07:09:53;;;;;;;15.40;14.80;;;18.50;99.90;;;;;;5092190;28;20446;-71
2021/07/07 07:12:19;;;;;;;16.30;15.70;;;18.30;99.90;;;;;;5111864;28;20862;-72
2021/07/07 07:14:50;;;;;;;19.10;18.20;;;18.20;99.90;;;;;;5112006;28;20453;-70
2021/07/07 07:17:16;;;;;;;21.73;20.73;;;18.20;99.90;;;;;;5112048;28;20453;-71
2021/07/07 07:19:43;;;;;;;22.60;21.23;;;18.00;99.90;;;;;;5112346;28;20484;-70
2021/07/07 07:22:11;;;;;;;23.20;22.10;;;17.80;99.90;;;;;;5112078;28;20474;-71
2021/07/07 07:24:38;;;;;;;23.13;22.10;;;17.70;99.90;;;;;;5112051;28;20455;-71
2021/07/07 07:27:05;;;;;;;24.23;23.10;;;17.80;99.90;;;;;;5111918;28;20865;-70
2021/07/07 07:29:32;;;;;;;24.50;23.50;;;17.80;99.90;;;;;;5112068;28;20456;-71
2021/07/07 07:31:58;;;;;;;25.60;24.50;;;17.80;99.90;;;;;;5111932;28;20513;-71
2021/07/07 07:34:25;;;;;;;27.00;25.90;;;17.80;99.90;;;;;;5111840;28;20457;-71
2021/07/07 07:36:58;;;;;;;28.13;26.90;;;17.80;99.90;;;;;;5111746;28;20445;-72
2021/07/07 07:39:27;;;;;;;29.40;28.20;;;17.80;99.90;;;;;;5071143;28;20512;-72
2021/07/07 07:41:54;;;;;;;30.97;29.47;;;18.10;99.90;;;;;;5070947;28;20451;-71
2021/07/07 07:44:21;;;;;;;32.00;30.63;;;18.40;99.90;;;;;;5070964;28;20447;-71
2021/07/07 07:46:48;;;;;;;32.00;30.60;;;18.70;99.90;;;;;;5070653;28;20483;-72
2021/07/07 07:49:14;;;;;;;31.10;29.60;;;18.90;99.90;;;;;;5070946;28;20452;-71
2021/07/07 07:51:41;;;;;;;29.83;28.43;;;19.20;99.90;;;;;;5070785;28;20487;-72
2021/07/07 07:54:08;;;;;;;31.57;30.07;;;19.20;99.90;;;;;;5070719;28;20451;-71
2021/07/07 07:56:36;;;;;;;30.90;29.40;;;19.20;99.90;;;;;;5070905;28;20463;-72
2021/07/07 07:59:03;;;;;;;30.27;28.30;;;19.10;99.90;;;;;;5071156;28;20447;-73
2021/07/07 08:01:29;;;;;;;30.03;28.53;;;19.00;99.90;;;;;;5071021;28;20450;-73
2021/07/07 08:03:56;;;;;;;29.17;27.93;;;18.80;99.90;;;;;;5071138;28;20458;-72
2021/07/07 08:06:23;;;;;;;30.63;29.20;;;18.70;99.90;;;;;;5070917;28;20905;-72
2021/07/07 08:08:49;;;;;;;30.60;29.20;;;18.80;99.90;;;;;;5070755;28;20956;-71
2021/07/07 08:11:16;;;;;;;30.90;29.40;;;18.70;99.90;;;;;;5074862;28;20905;-71
2021/07/07 08:13:44;;;;;;;29.93;28.57;;;18.80;99.90;;;;;;5111079;28;20449;-71
2021/07/07 08:16:11;;;;;;;30.40;28.80;;;18.80;99.90;;;;;;5111330;28;20477;-71
2021/07/07 08:18:38;;;;;;;30.03;28.47;;;18.80;99.90;;;;;;5111267;28;20698;-73
2021/07/07 08:21:05;;;;;;;28.67;27.47;;;18.80;99.90;;;;;;5111302;28;20446;-73
2021/07/07 08:23:31;;;;;;;28.10;26.80;;;18.80;99.90;;;;;;5111226;28;20442;-72
2021/07/07 08:25:58;;;;;;;25.93;24.93;;;18.90;99.90;;;;;;5111164;28;20449;-72
2021/07/07 08:28:25;;;;;;;25.83;24.63;;;18.70;99.90;;;;;;5113258;28;20453;-73
2021/07/07 08:30:53;;;;;;;25.60;24.43;;;18.60;99.90;;;;;;5115601;28;20453;-73
2021/07/07 08:33:20;;;;;;;25.43;24.27;;;18.60;99.90;;;;;;5115450;28;20480;-73
2021/07/07 08:35:46;;;;;;;23.33;22.33;;;18.60;99.90;;;;;;5115525;28;20441;-73
2021/07/07 08:38:13;;;;;;;21.77;20.80;;;18.40;99.90;;;;;;5111317;28;20820;-73
2021/07/07 08:40:40;;;;;;;21.47;20.27;;;18.30;99.90;;;;;;5094982;28;20457;-72
2021/07/07 08:43:09;;;;;;;21.00;19.63;;;18.30;99.90;;;;;;5094939;28;20438;-72
2021/07/07 08:45:35;;;;;;;19.97;18.87;;;18.30;99.90;;;;;;5094759;28;20490;-72
2021/07/07 08:48:04;;;;;;;19.17;18.37;;;18.60;99.90;;;;;;5094829;28;20936;-72
2021/07/07 08:50:35;;;;;;;17.97;16.90;;;18.70;99.90;;;;;;5094937;28;20446;-73
2021/07/07 08:53:03;;;;;;;15.90;15.30;;;19.00;99.90;;;;;;5094850;28;20580;-73
2021/07/07 08:55:31;;;;;;;18.17;17.27;;;19.20;99.90;;;;;;5094927;28;20457;-72
2021/07/07 08:57:58;;;;;;;17.63;16.73;;;19.40;99.90;;;;;;5094919;28;20454;-73
2021/07/07 09:00:30;;;;;;;18.17;17.00;;;19.40;99.90;;;;;;5094426;28;20453;-73
2021/07/07 09:02:59;;;;;;;18.50;17.60;;;19.20;99.90;;;;;;5094593;28;20451;-73
2021/07/07 09:05:29;;;;;;;17.10;16.30;;;19.20;99.90;;;;;;5094402;28;21045;-72
2021/07/07 09:08:03;;;;;;;17.07;16.17;;;19.50;99.90;;;;;;5094580;28;20454;-73
2021/07/07 09:10:32;;;;;;;15.13;14.27;;;19.80;99.90;;;;;;5094719;28;20473;-72
2021/07/07 09:13:09;;;;;;;14.40;13.70;;;20.20;99.90;;;;;;5094693;28;20484;-73
2021/07/07 09:15:36;;;;;;;14.30;13.70;;;20.90;99.90;;;;;;5094308;28;20449;-73
2021/07/07 09:18:02;;;;;;;14.40;13.80;;;21.60;99.90;;;;;;5094355;28;20462;-73
2021/07/07 09:20:36;;;;;;;14.93;14.13;;;22.10;99.90;;;;;;5094545;28;20445;-72
2021/07/07 09:23:17;;;;;;;14.83;14.07;;;22.70;99.90;;;;;;5094298;28;20450;-73
2021/07/07 09:25:49;;;;;;;16.03;15.23;;;23.20;99.90;;;;;;5094350;28;20811;-73
2021/07/07 09:28:19;;;;;;;15.97;14.77;;;23.40;99.90;;;;;;5094281;28;20457;-72
2021/07/07 09:30:45;;;;;;;14.50;13.80;;;23.20;99.90;;;;;;5094251;28;20811;-72
2021/07/07 09:33:12;;;;;;;14.37;13.57;;;22.80;99.90;;;;;;5094035;28;20490;-72
2021/07/07 09:35:41;;;;;;;14.47;13.87;;;22.60;99.90;;;;;;5094195;28;20446;-73
2021/07/07 09:38:08;;;;;;;15.87;15.07;;;22.50;99.90;;;;;;5094028;28;20533;-72
2021/07/07 09:40:40;;;;;;;15.90;15.03;;;22.80;99.90;;;;;;5093919;28;20944;-73
2021/07/07 09:43:07;;;;;;;15.20;14.40;;;22.90;99.90;;;;;;5093932;28;20447;-73
2021/07/07 09:45:33;;;;;;;15.03;14.23;;;23.30;99.90;;;;;;5093688;28;20494;-73
2021/07/07 09:48:00;;;;;;;15.33;14.30;;;23.30;99.90;;;;;;5094125;28;20450;-73
2021/07/07 09:50:27;;;;;;;14.90;14.00;;;23.00;99.90;;;;;;5093966;28;20868;-73
2021/07/07 09:52:56;;;;;;;15.50;14.80;;;22.80;99.90;;;;;;5093631;28;20481;-72
2021/07/07 09:55:23;;;;;;;15.20;14.37;;;22.70;99.90;;;;;;5093821;28;20497;-72
2021/07/07 09:57:50;;;;;;;16.07;14.80;;;22.80;99.90;;;;;;5093613;28;20477;-73
2021/07/07 10:00:18;;;;;;;15.03;14.17;;;22.80;99.90;;;;;;5093775;28;20836;-73
2021/07/07 10:02:48;;;;;;;14.60;14.00;;;22.70;99.90;;;;;;5093604;28;20450;-72
2021/07/07 10:05:16;;;;;;;14.63;13.83;;;22.60;99.90;;;;;;5093434;28;20940;-73
2021/07/07 10:07:44;;;;;;;14.07;13.40;;;22.70;99.90;;;;;;5093497;28;20932;-72
2021/07/07 10:10:15;;;;;;;14.43;13.57;;;22.80;99.90;;;;;;5093364;28;20450;-73
2021/07/07 10:12:44;;;;;;;16.60;15.70;;;22.70;99.90;;;;;;5084377;28;20502;-72
2021/07/07 10:15:12;;;;;;;15.00;14.10;;;22.60;99.90;;;;;;5072784;28;20479;-72
2021/07/07 10:17:41;;;;;;;15.57;14.80;;;22.80;99.90;;;;;;5073042;28;20451;-73
2021/07/07 10:20:09;;;;;;;14.17;13.47;;;23.10;99.90;;;;;;5073072;28;20787;-74
2021/07/07 10:22:37;;;;;;;15.83;14.93;;;23.50;99.90;;;;;;5072909;28;20455;-73
2021/07/07 10:25:06;;;;;;;15.60;14.77;;;23.50;99.90;;;;;;5072634;28;20451;-73
2021/07/07 10:27:36;;;;;;;16.40;15.20;;;23.60;99.90;;;;;;5072721;28;20796;-73
2021/07/07 10:30:04;;;;;;;15.43;14.63;;;23.80;99.90;;;;;;5072708;28;20500;-73
2021/07/07 10:32:31;;;;;;;15.47;14.23;;;23.80;99.90;;;;;;5072720;28;20483;-73
2021/07/07 10:35:04;;;;;;;14.37;13.33;;;23.60;99.90;;;;;;5072681;28;20454;-73
2021/07/07 10:37:33;;;;;;;14.00;13.10;;;23.00;99.90;;;;;;5072630;28;20446;-72
2021/07/07 10:40:28;;;;;;;15.03;14.23;;;23.10;99.90;;;;;;5110563;28;20445;-73
2021/07/07 10:42:57;;;;;;;14.10;13.40;;;23.00;99.90;;;;;;5112763;28;20481;-73
2021/07/07 10:45:37;;;;;;;15.77;14.73;;;23.20;99.90;;;;;;5112652;28;20485;-73
2021/07/07 10:48:30;;;;;;;14.77;13.97;;;23.80;99.90;;;;;;5112975;28;20471;-74
2021/07/07 10:50:58;;;;;;;15.03;14.13;;;24.30;99.90;;;;;;5088202;28;20453;-73
2021/07/07 10:53:28;;;;;;;14.70;13.90;;;25.00;99.90;;;;;;5112939;28;20883;-74
2021/07/07 10:55:55;;;;;;;14.97;14.17;;;25.30;99.90;;;;;;5112710;28;20449;-74
2021/07/07 10:58:29;;;;;;;15.10;14.20;;;25.10;99.90;;;;;;5113397;28;20449;-74
2021/07/07 11:00:57;;;;;;;13.00;12.30;;;25.00;99.90;;;;;;5112641;28;20490;-74
2021/07/07 11:03:33;;;;;;;13.47;12.87;;;24.70;99.90;;;;;;5112781;28;20934;-74
2021/07/07 11:06:31;;;;;;;13.07;12.47;;;24.70;99.90;;;;;;5112934;28;20548;-75
2021/07/07 11:09:11;;;;;;;13.90;13.07;;;25.00;99.90;;;;;;5113011;28;20442;-74
2021/07/07 11:11:38;;;;;;;13.60;12.70;;;25.00;99.90;;;;;;5112515;28;20506;-74
2021/07/07 11:14:25;;;;;;;13.90;13.20;;;24.80;99.90;;;;;;5097107;28;20485;-74
2021/07/07 11:16:55;;;;;;;11.73;11.33;;;25.00;99.90;;;;;;5092024;28;20469;-74
2021/07/07 11:19:44;;;;;;;13.60;12.80;;;24.60;99.90;;;;;;5087571;28;20451;-74
2021/07/07 11:22:12;;;;;;;13.80;13.17;;;24.30;99.90;;;;;;5071608;28;20499;-74
2021/07/07 11:24:44;;;;;;;14.67;13.67;;;24.10;99.90;;;;;;5071542;28;20455;-74
2021/07/07 11:27:11;;;;;;;15.30;14.50;;;24.10;99.90;;;;;;5071513;28;20455;-74
2021/07/07 11:29:39;;;;;;;14.27;13.50;;;24.40;99.90;;;;;;5071591;28;20447;-74
2021/07/07 11:32:22;;;;;;;13.83;13.13;;;24.20;99.90;;;;;;5071072;28;20796;-74
2021/07/07 11:34:50;;;;;;;14.23;13.43;;;23.90;99.90;;;;;;5071369;28;20872;-74
2021/07/07 11:37:17;;;;;;;14.20;13.60;;;24.10;99.90;;;;;;5071321;28;20862;-75
2021/07/07 11:39:44;;;;;;;15.37;14.27;;;24.10;99.90;;;;;;5071450;28;20447;-75
2021/07/07 11:42:10;;;;;;;15.03;14.33;;;24.50;99.90;;;;;;5071460;28;20461;-74
2021/07/07 11:44:43;;;;;;;13.43;12.93;;;24.80;99.90;;;;;;5071004;28;20458;-75
2021/07/07 11:47:12;;;;;;;14.57;13.70;;;24.90;99.90;;;;;;5071242;28;20454;-75
2021/07/07 11:49:39;;;;;;;13.83;13.17;;;25.00;99.90;;;;;;5071327;28;20896;-75
2021/07/07 11:52:06;;;;;;;13.67;12.97;;;25.40;99.90;;;;;;5071111;28;20454;-75
2021/07/07 11:54:47;;;;;;;14.00;13.10;;;25.20;99.90;;;;;;5071051;28;20458;-75
2021/07/07 11:57:14;;;;;;;14.30;13.50;;;25.10;99.90;;;;;;5071183;28;20486;-74
2021/07/07 11:59:42;;;;;;;13.23;12.63;;;24.70;99.90;;;;;;5070850;28;20956;-75
2021/07/07 12:02:09;;;;;;;13.63;13.00;;;24.60;99.90;;;;;;5070162;28;20459;-74
2021/07/07 12:04:35;;;;;;;13.23;12.53;;;24.60;99.90;;;;;;5070298;28;20514;-74
2021/07/07 12:07:02;;;;;;;13.33;12.70;;;25.00;99.90;;;;;;5070601;28;20454;-75
2021/07/07 12:09:31;;;;;;;12.60;12.10;;;25.30;99.90;;;;;;5070736;28;20447;-73
2021/07/07 12:11:59;;;;;;;12.90;12.30;;;25.70;99.90;;;;;;5070691;28;20554;-74
2021/07/07 12:14:29;;;;;;;12.53;12.03;;;26.30;99.90;;;;;;5087857;28;20959;-76
2021/07/07 12:16:58;;;;;;;12.90;12.40;;;27.10;99.90;;;;;;5091116;28;20454;-75
2021/07/07 12:19:26;;;;;;;12.43;12.03;;;27.70;99.80;;;;;;5090980;28;20842;-75
2021/07/07 12:21:55;;;;;;;13.43;12.73;;;27.60;99.50;;;;;;5090138;28;20553;-75
2021/07/07 12:24:24;;;;;;;13.13;12.57;;;27.90;98.50;;;;;;5090892;28;20453;-75
2021/07/07 12:26:53;;;;;;;14.00;13.13;;;27.10;99.70;;;;;;5090889;28;20500;-75
2021/07/07 12:29:22;;;;;;;13.40;12.90;;;27.10;99.90;;;;;;5090789;28;20512;-75
2021/07/07 12:31:51;;;;;;;12.80;12.30;;;27.10;99.90;;;;;;5090879;28;20457;-74
2021/07/07 12:34:25;;;;;;;13.30;12.80;;;26.80;99.90;;;;;;5090740;28;20512;-75